Time;durP1;ratioP1;P1;durP2;ratioP2;P2;SDS_P1;SDS_P2;PMS_P1;PMS_P2;Temp;Humidity;BMP_temperature;BMP_pressure;BME280_temperature;BME280_humidity;BME280_pressure;Samples;Min_cycle;Max_cycle;Signal;HPM_P1;HPM_P2
2021/12/17 00:04:36;;;;;;;;;;;;;;;10.79;66.39;101317.25;4993740;28;20390;-75
2021/12/17 00:07:09;;;;;;;;;;;;;;;11.08;61.73;101319.94;5001458;28;19924;-74
2021/12/17 00:09:34;;;;;;;;;;;;;;;11.23;63.12;101313.94;4992268;28;20002;-74
2021/12/17 00:11:59;;;;;;;;;;;;;;;11.28;64.83;101319.09;4985286;28;20005;-74
2021/12/17 00:14:28;;;;;;;;;;;;;;;11.26;66.54;101316.50;4984138;28;20317;-74
2021/12/17 00:16:54;;;;;;;;;;;;;;;11.17;67.63;101318.22;5002670;28;19975;-75
2021/12/17 00:19:35;;;;;;;;;;;;;;;11.11;66.55;101308.75;5002726;28;19918;-74
2021/12/17 00:48:24;;;;;;;;;;;;;;;11.12;68.42;101300.16;4987092;28;19928;-74
2021/12/17 00:49:22;;;;;;;;;;;;;;;11.09;68.97;101305.31;5000788;28;20012;-75
2021/12/17 00:52:01;;;;;;;;;;;;;;;10.89;70.52;101297.50;4982357;28;19928;-73
2021/12/17 00:54:40;;;;;;;;;;;;;;;11.01;66.88;101301.84;4992147;28;19917;-73
2021/12/17 00:57:07;;;;;;;;;;;;;;;10.07;69.67;101288.47;4980684;28;20421;-73
2021/12/17 00:59:32;;;;;;;;;;;;;;;10.45;60.58;101304.19;4983449;28;19968;-73
2021/12/17 01:01:59;;;;;;;;;;;;;;;10.91;59.11;101300.09;4989322;28;19925;-72
2021/12/17 01:04:25;;;;;;;;;;;;;;;11.01;61.30;101301.84;5000242;28;19921;-73
2021/12/17 01:06:51;;;;;;;;;;;;;;;10.92;64.45;101296.66;4988809;28;19921;-73
2021/12/17 01:09:17;;;;;;;;;;;;;;;10.58;65.95;101289.66;4994476;28;19924;-73
2021/12/17 01:11:43;;;;;;;;;;;;;;;10.79;64.11;101283.72;4988355;28;21078;-72
2021/12/17 01:14:08;;;;;;;;;;;;;;;10.84;64.97;101284.59;4997227;28;19968;-73
2021/12/17 01:16:34;;;;;;;;;;;;;;;10.95;65.29;101276.03;4979951;28;20016;-75
2021/12/17 01:21:36;;;;;;;;;;;;;;;10.91;68.02;101270.00;4995275;28;20011;-75
2021/12/17 01:42:37;;;;;;;;;;;;;;;10.98;66.11;101282.06;4992214;28;20402;-74
2021/12/17 01:45:03;;;;;;;;;;;;;;;11.06;67.74;101276.91;4988337;28;19921;-74
2021/12/17 01:47:28;;;;;;;;;;;;;;;11.06;69.50;101271.75;5006993;28;19921;-75
2021/12/17 02:01:09;;;;;;;;;;;;;;;10.46;61.88;101280.13;4915511;29;19987;-74
2021/12/17 02:03:35;;;;;;;;;;;;;;;9.72;58.52;101295.94;4916316;29;20558;-75
2021/12/17 02:06:02;;;;;;;;;;;;;;;9.48;49.09;101320.56;4906369;29;20365;-74
2021/12/17 02:08:27;;;;;;;;;;;;;;;9.38;41.53;101336.75;4916841;29;19919;-75
2021/12/17 02:22:50;;;;;;;;;;;;;;;10.94;59.19;101320.72;4915974;29;19930;-75
2021/12/17 02:32:37;;;;;;;;;;;;;;;9.57;60.21;101294.91;5005004;28;20033;-77
2021/12/17 02:35:21;;;;;;;;;;;;;;;9.63;49.70;101313.00;4978856;28;20399;-77
2021/12/17 02:37:48;;;;;;;;;;;;;;;10.40;44.32;101312.72;5001643;28;19918;-76
2021/12/17 02:45:36;;;;;;;;;;;;;;;9.12;43.34;101329.63;4945234;29;19978;-73
2021/12/17 02:48:07;;;;;;;;;;;;;;;8.66;34.17;101341.88;4949178;29;19914;-74
2021/12/17 02:50:34;;;;;;;;;;;;;;;8.62;24.80;101368.41;4949559;29;19919;-74
2021/12/17 02:53:01;;;;;;;;;;;;;;;8.70;19.47;101382.19;4950248;29;20006;-74
2021/12/17 02:55:27;;;;;;;;;;;;;;;8.88;15.10;101404.72;4949474;29;19993;-74
2021/12/17 02:57:53;;;;;;;;;;;;;;;9.13;11.79;101413.59;4945027;29;19919;-74
2021/12/17 03:00:18;;;;;;;;;;;;;;;9.21;10.49;101417.16;4948295;29;20030;-74
2021/12/17 03:02:44;;;;;;;;;;;;;;;9.29;10.33;101414.66;4948993;29;19950;-74
2021/12/17 03:05:10;;;;;;;;;;;;;;;9.81;8.46;101427.25;4948991;28;19969;-74
2021/12/17 03:07:38;;;;;;;;;;;;;;;10.00;10.72;101418.84;4948209;29;19950;-74
2021/12/17 03:10:07;;;;;;;;;;;;;;;9.98;12.87;101412.81;4948793;29;19918;-74
2021/12/17 03:12:45;;;;;;;;;;;;;;;9.90;17.09;101403.28;4947922;29;19914;-74
2021/12/17 03:23:29;;;;;;;;;;;;;;;10.02;25.70;101385.41;5009009;28;19935;-74
2021/12/17 03:25:55;;;;;;;;;;;;;;;9.54;23.63;101381.50;5008898;28;19984;-74
2021/12/17 03:28:21;;;;;;;;;;;;;;;9.46;21.66;101386.56;4999375;28;20341;-74
2021/12/17 03:30:46;;;;;;;;;;;;;;;9.69;17.39;101391.06;4989852;28;19981;-74
2021/12/17 03:33:12;;;;;;;;;;;;;;;10.26;17.62;101387.28;5007545;28;19940;-74
2021/12/17 03:35:37;;;;;;;;;;;;;;;10.55;24.52;101369.50;5008246;28;19924;-74
2021/12/17 03:38:03;;;;;;;;;;;;;;;10.52;28.06;101355.75;4997751;28;20298;-74
2021/12/17 03:40:31;;;;;;;;;;;;;;;10.84;33.71;101346.47;4989640;28;19917;-74
2021/12/17 03:43:02;;;;;;;;;;;;;;;10.44;41.45;101338.50;4980425;28;19967;-74
2021/12/17 03:45:27;;;;;;;;;;;;;;;10.08;38.34;101344.25;4991602;28;20395;-74
2021/12/17 03:47:53;;;;;;;;;;;;;;;9.76;34.18;101341.41;4998833;28;20010;-74
2021/12/17 03:50:18;;;;;;;;;;;;;;;9.18;29.28;101350.25;4991430;28;20020;-74
2021/12/17 03:52:43;;;;;;;;;;;;;;;8.84;24.41;101368.69;5009797;28;19921;-73
2021/12/17 03:55:09;;;;;;;;;;;;;;;8.87;17.36;101379.88;4998967;28;20371;-74
2021/12/17 03:57:35;;;;;;;;;;;;;;;9.11;12.22;101402.44;5000389;28;19924;-74
2021/12/17 04:00:01;;;;;;;;;;;;;;;8.91;11.11;101403.88;5009671;28;20014;-73
2021/12/17 04:02:27;;;;;;;;;;;;;;;8.97;7.37;101406.53;4983156;28;20017;-74
2021/12/17 04:04:52;;;;;;;;;;;;;;;8.99;5.33;101420.28;5009844;28;19984;-74
2021/12/17 04:07:17;;;;;;;;;;;;;;;8.90;3.81;101426.16;5010183;28;20025;-74
2021/12/17 04:09:43;;;;;;;;;;;;;;;8.77;2.34;101435.38;4991348;28;20000;-74
2021/12/17 04:12:13;;;;;;;;;;;;;;;8.66;0.21;101436.94;4990642;28;19919;-74
2021/12/17 04:14:45;;;;;;;;;;;;;;;8.71;0.00;101440.47;4997259;28;20375;-74
2021/12/17 04:17:11;;;;;;;;;;;;;;;8.63;0.00;101443.75;5010656;28;20201;-74
2021/12/17 04:19:36;;;;;;;;;;;;;;;8.44;0.00;101445.13;4992206;28;19917;-74
2021/12/17 04:22:02;;;;;;;;;;;;;;;8.56;0.00;101453.06;4991681;28;20364;-73
2021/12/17 04:24:27;;;;;;;;;;;;;;;8.37;0.00;101460.44;5009769;28;19913;-74
2021/12/17 04:26:53;;;;;;;;;;;;;;;8.40;0.00;101474.16;5009898;28;19924;-73
2021/12/17 04:29:19;;;;;;;;;;;;;;;8.40;0.00;101479.31;4990921;28;20448;-73
2021/12/17 04:31:51;;;;;;;;;;;;;;;8.40;0.00;101487.91;5010300;28;19971;-74
2021/12/17 04:34:18;;;;;;;;;;;;;;;8.32;0.00;101490.28;5009731;28;19960;-74
2021/12/17 04:36:45;;;;;;;;;;;;;;;8.25;0.00;101496.16;4991202;28;19926;-74
2021/12/17 04:39:10;;;;;;;;;;;;;;;8.20;0.00;101496.91;5009214;28;20051;-74
2021/12/17 04:44:37;;;;;;;;;;;;;;;8.16;0.00;101501.13;4989900;28;19922;-74
2021/12/17 04:57:15;;;;;;;;;;;;;;;8.14;0.00;101518.19;4988817;28;19925;-74
2021/12/17 04:57:40;;;;;;;;;;;;;;;8.41;0.00;101532.41;4990828;28;20059;-73
2021/12/17 05:00:12;;;;;;;;;;;;;;;8.31;0.00;101537.34;4988288;28;19917;-73
2021/12/17 05:02:42;;;;;;;;;;;;;;;8.28;0.00;101532.16;4988381;28;20608;-73
2021/12/17 05:05:09;;;;;;;;;;;;;;;8.19;0.00;101534.56;4986342;28;19921;-73
2021/12/17 05:07:35;;;;;;;;;;;;;;;8.21;0.00;101540.59;4987080;28;19921;-74
2021/12/17 05:20:47;;;;;;;;;;;;;;;8.22;0.00;101550.00;5004646;28;19928;-73
2021/12/17 05:23:13;;;;;;;;;;;;;;;8.63;0.00;101554.19;4987984;28;19913;-74
2021/12/17 05:25:38;;;;;;;;;;;;;;;8.55;0.00;101557.50;4992206;28;19921;-74
2021/12/17 05:28:04;;;;;;;;;;;;;;;8.14;0.00;101549.00;4984571;28;19925;-73
2021/12/17 05:30:30;;;;;;;;;;;;;;;8.43;0.00;101548.72;4985697;28;20372;-74
2021/12/17 05:32:56;;;;;;;;;;;;;;;8.36;0.00;101545.97;4985826;28;20465;-74
2021/12/17 05:35:22;;;;;;;;;;;;;;;8.29;0.00;101539.00;5003354;28;20020;-74
2021/12/17 05:37:47;;;;;;;;;;;;;;;8.55;0.00;101541.19;4993335;28;19921;-74
2021/12/17 05:40:12;;;;;;;;;;;;;;;8.64;0.00;101530.22;4992105;28;19949;-74
2021/12/17 05:42:40;;;;;;;;;;;;;;;8.95;0.00;101517.03;4993130;28;19972;-74
2021/12/17 05:45:21;;;;;;;;;;;;;;;9.02;0.00;101505.13;4986630;28;20004;-75
2021/12/17 05:47:46;;;;;;;;;;;;;;;9.17;0.00;101495.06;4992168;28;19971;-75
2021/12/17 05:50:11;;;;;;;;;;;;;;;9.85;0.00;101477.88;4985242;28;20941;-75
2021/12/17 05:52:37;;;;;;;;;;;;;;;9.73;0.00;101454.59;4990272;28;20797;-75
2021/12/17 05:55:02;;;;;;;;;;;;;;;9.11;0.00;101429.84;5002752;28;20020;-75
2021/12/17 05:57:28;;;;;;;;;;;;;;;8.69;0.00;101425.84;5007203;28;19925;-75
2021/12/17 05:59:53;;;;;;;;;;;;;;;8.65;0.00;101414.66;5007265;28;19914;-74
2021/12/17 06:02:19;;;;;;;;;;;;;;;8.46;0.00;101415.22;4990645;28;19917;-74
2021/12/17 06:04:45;;;;;;;;;;;;;;;8.51;0.00;101418.75;4992180;28;19919;-74
2021/12/17 06:07:10;;;;;;;;;;;;;;;8.36;0.00;101420.19;5000205;28;20003;-74
2021/12/17 06:09:36;;;;;;;;;;;;;;;8.37;0.00;101421.06;4992707;28;20399;-74
2021/12/17 06:12:02;;;;;;;;;;;;;;;8.44;0.00;101422.03;4993684;28;19921;-74
2021/12/17 06:14:27;;;;;;;;;;;;;;;8.62;0.00;101417.19;5008457;28;19913;-77
2021/12/17 06:16:52;;;;;;;;;;;;;;;8.59;0.00;101410.28;5007914;28;19968;-78
2021/12/17 06:19:19;;;;;;;;;;;;;;;8.31;0.00;101408.13;4991233;28;19949;-77
2021/12/17 06:21:46;;;;;;;;;;;;;;;8.34;0.00;101409.00;4985103;28;19918;-77
2021/12/17 06:24:11;;;;;;;;;;;;;;;8.31;0.00;101406.41;5001760;28;20441;-76
2021/12/17 06:26:37;;;;;;;;;;;;;;;8.33;0.00;101402.16;5002206;28;19913;-76
2021/12/17 06:29:02;;;;;;;;;;;;;;;8.48;0.00;101416.09;5001364;28;19922;-77
2021/12/17 06:31:27;;;;;;;;;;;;;;;8.31;0.00;101414.09;4984827;28;20529;-77
2021/12/17 06:33:53;;;;;;;;;;;;;;;8.44;0.00;101410.06;5001461;28;20030;-76
2021/12/17 06:36:18;;;;;;;;;;;;;;;8.23;0.00;101405.41;5001759;28;19925;-77
2021/12/17 06:38:44;;;;;;;;;;;;;;;8.20;0.00;101415.63;4990680;28;19983;-77
2021/12/17 06:41:09;;;;;;;;;;;;;;;8.28;0.00;101429.47;4986093;28;21087;-76
2021/12/17 06:43:40;;;;;;;;;;;;;;;8.39;0.00;101442.47;4985686;28;20307;-76
2021/12/17 06:46:24;;;;;;;;;;;;;;;8.45;0.00;101434.03;4984685;28;19972;-77
2021/12/17 06:48:56;;;;;;;;;;;;;;;8.40;0.00;101438.22;5003435;28;20430;-77
2021/12/17 06:57:51;;;;;;;;;;;;;;;8.86;0.00;101429.53;4988252;28;19971;-77
2021/12/17 06:59:49;;;;;;;;;;;;;;;8.77;0.00;101425.09;4995181;28;19944;-77
2021/12/17 07:10:16;;;;;;;;;;;;;;;8.12;0.00;101406.97;5003080;28;20441;-77
2021/12/17 07:23:46;;;;;;;;;;;;;;;8.98;0.00;101426.25;4993840;28;19913;-78
2021/12/17 07:29:43;;;;;;;;;;;;;;;8.60;0.00;101406.03;5001410;28;19976;-77
2021/12/17 07:34:08;;;;;;;;;;;;;;;8.28;0.00;101411.50;4991844;28;19918;-76
2021/12/17 07:36:43;;;;;;;;;;;;;;;8.10;0.00;101418.91;4990352;28;20440;-77
2021/12/17 07:39:09;;;;;;;;;;;;;;;8.34;0.00;101428.69;5002343;28;19996;-77
2021/12/17 07:41:35;;;;;;;;;;;;;;;8.64;0.00;101440.31;4984251;28;19967;-77
2021/12/17 07:44:01;;;;;;;;;;;;;;;8.21;0.00;101434.47;4991341;28;20293;-77
2021/12/17 07:46:27;;;;;;;;;;;;;;;8.26;0.00;101436.28;4984046;28;19921;-77
2021/12/17 07:48:53;;;;;;;;;;;;;;;8.33;0.00;101438.09;4977064;28;19969;-76
2021/12/17 07:51:19;;;;;;;;;;;;;;;8.56;0.00;101435.06;4974992;28;19913;-76
2021/12/17 07:53:45;;;;;;;;;;;;;;;8.41;0.00;101434.81;4989422;28;19921;-75
2021/12/17 07:56:12;;;;;;;;;;;;;;;8.60;0.00;101436.84;4983692;28;20294;-75
2021/12/17 07:58:38;;;;;;;;;;;;;;;8.27;0.00;101442.28;4983909;28;19921;-75
2021/12/17 08:01:04;;;;;;;;;;;;;;;8.45;0.00;101458.00;4990685;28;19940;-76
2021/12/17 08:03:29;;;;;;;;;;;;;;;8.36;0.00;101458.69;5001172;28;19922;-77
2021/12/17 08:05:55;;;;;;;;;;;;;;;8.56;0.00;101456.47;4980605;28;19925;-77
2021/12/17 08:08:20;;;;;;;;;;;;;;;8.29;0.00;101462.00;4986474;28;20004;-76
2021/12/17 08:10:49;;;;;;;;;;;;;;;8.32;0.00;101463.75;4995999;28;19917;-77
2021/12/17 08:13:27;;;;;;;;;;;;;;;8.48;0.00;101470.03;4989645;28;19927;-77
2021/12/17 08:24:15;;;;;;;;;;;;;;;8.71;0.00;101455.88;4993281;28;19971;-77
2021/12/17 08:26:40;;;;;;;;;;;;;;;8.66;0.00;101454.91;5007235;28;20165;-77
2021/12/17 08:31:32;;;;;;;;;;;;;;;7.96;0.00;101442.63;4990731;28;19920;-77
2021/12/17 08:33:58;;;;;;;;;;;;;;;8.08;0.00;101457.38;4990736;28;19917;-78
2021/12/17 08:36:23;;;;;;;;;;;;;;;8.40;0.00;101451.06;4990564;28;19964;-76
2021/12/17 08:38:49;;;;;;;;;;;;;;;8.98;0.00;101459.66;4991844;28;20383;-78
2021/12/17 08:41:15;;;;;;;;;;;;;;;8.41;0.00;101460.50;4990788;28;20386;-78
2021/12/17 08:43:41;;;;;;;;;;;;;;;8.26;0.00;101464.53;4989935;28;19914;-78
2021/12/17 08:46:06;;;;;;;;;;;;;;;8.19;0.00;101472.97;5008868;28;19917;-77
2021/12/17 08:48:32;;;;;;;;;;;;;;;8.25;0.00;101478.19;4996116;28;19921;-78
2021/12/17 08:50:58;;;;;;;;;;;;;;;7.83;0.00;101471.44;5009686;28;19917;-77
2021/12/17 08:53:23;;;;;;;;;;;;;;;8.17;0.00;101484.91;4995901;28;19918;-78
2021/12/17 08:55:48;;;;;;;;;;;;;;;8.14;0.00;101487.38;4991713;28;19961;-78
2021/12/17 08:58:14;;;;;;;;;;;;;;;8.63;0.00;101497.69;5008321;28;19976;-78
2021/12/17 09:00:43;;;;;;;;;;;;;;;8.81;0.00;101486.84;4996703;28;19921;-77
2021/12/17 09:03:09;;;;;;;;;;;;;;;8.66;0.00;101472.91;4990781;28;20013;-78
2021/12/17 09:05:39;;;;;;;;;;;;;;;8.28;0.00;101460.28;4990204;28;19929;-77
2021/12/17 09:08:05;;;;;;;;;;;;;;;8.56;0.00;101458.19;4988631;28;19925;-78
2021/12/17 09:10:30;;;;;;;;;;;;;;;8.72;0.00;101461.88;5006923;28;20515;-78
2021/12/17 09:12:56;;;;;;;;;;;;;;;8.64;0.00;101456.59;4994834;28;19928;-78
2021/12/17 09:15:21;;;;;;;;;;;;;;;8.53;0.00;101453.00;5008820;28;20170;-78
2021/12/17 09:17:47;;;;;;;;;;;;;;;7.99;0.00;101446.09;4993219;28;19921;-78
2021/12/17 09:20:12;;;;;;;;;;;;;;;8.26;0.00;101461.97;5008260;28;19921;-78
2021/12/17 09:22:38;;;;;;;;;;;;;;;8.99;0.00;101453.69;5007744;28;19968;-78
2021/12/17 09:25:03;;;;;;;;;;;;;;;8.99;0.00;101453.69;4995906;28;19914;-78
2021/12/17 09:27:29;;;;;;;;;;;;;;;9.24;0.00;101452.31;5007280;28;20556;-77
2021/12/17 09:29:54;;;;;;;;;;;;;;;8.81;0.00;101433.75;5008557;28;19926;-77
2021/12/17 09:32:21;;;;;;;;;;;;;;;8.27;0.00;101437.16;4996448;28;19917;-77
2021/12/17 09:34:46;;;;;;;;;;;;;;;8.43;0.00;101443.44;5011433;28;19944;-77
2021/12/17 09:37:13;;;;;;;;;;;;;;;8.50;0.00;101440.09;5014231;28;19917;-78
2021/12/17 09:39:39;;;;;;;;;;;;;;;8.35;0.00;101441.56;4998717;28;20064;-78
2021/12/17 09:42:04;;;;;;;;;;;;;;;8.23;0.00;101445.63;4994337;28;20489;-78
2021/12/17 09:44:30;;;;;;;;;;;;;;;8.31;0.00;101455.19;4993161;28;20032;-78
2021/12/17 09:46:57;;;;;;;;;;;;;;;8.34;0.00;101450.09;4982582;28;19925;-78
2021/12/17 09:49:23;;;;;;;;;;;;;;;8.05;0.00;101456.44;4999864;28;19926;-78
2021/12/17 09:51:48;;;;;;;;;;;;;;;8.32;0.00;101461.19;4983720;28;19926;-77
2021/12/17 09:54:14;;;;;;;;;;;;;;;8.12;0.00;101464.28;5009706;28;20342;-77
2021/12/17 09:56:39;;;;;;;;;;;;;;;8.22;0.00;101474.72;4992063;28;19925;-78
2021/12/17 09:59:05;;;;;;;;;;;;;;;8.05;0.00;101472.72;4998144;28;19976;-78
2021/12/17 10:01:30;;;;;;;;;;;;;;;8.04;0.00;101488.94;4997391;28;19944;-78
2021/12/17 10:04:11;;;;;;;;;;;;;;;8.21;0.00;101493.50;4993133;28;19967;-78
2021/12/17 10:06:37;;;;;;;;;;;;;;;8.23;0.00;101491.84;5012393;28;19924;-77
2021/12/17 10:09:02;;;;;;;;;;;;;;;7.99;0.00;101505.09;5008905;28;19921;-77
2021/12/17 10:11:28;;;;;;;;;;;;;;;7.85;0.00;101509.97;5003992;28;19921;-74
2021/12/17 10:13:53;;;;;;;;;;;;;;;8.60;0.00;101526.75;4967831;28;19917;-76
2021/12/17 10:16:19;;;;;;;;;;;;;;;8.34;0.00;101529.69;5003393;28;20298;-76
2021/12/17 10:18:46;;;;;;;;;;;;;;;8.14;0.00;101516.50;4992504;28;20023;-75
2021/12/17 10:21:19;;;;;;;;;;;;;;;8.71;0.00;101522.66;4975025;28;19921;-75
2021/12/17 10:23:44;;;;;;;;;;;;;;;8.90;0.00;101507.53;4985553;28;19917;-75
2021/12/17 10:26:10;;;;;;;;;;;;;;;8.68;0.00;101499.47;4976018;28;19921;-75
2021/12/17 10:28:36;;;;;;;;;;;;;;;8.53;0.00;101494.97;4985572;28;19925;-75
2021/12/17 10:31:01;;;;;;;;;;;;;;;8.35;0.00;101492.91;5004725;28;19923;-75
2021/12/17 10:33:27;;;;;;;;;;;;;;;8.01;0.00;101490.59;4983496;28;19922;-75
2021/12/17 10:35:53;;;;;;;;;;;;;;;8.22;0.00;101500.38;4987961;28;19921;-74
2021/12/17 10:38:23;;;;;;;;;;;;;;;8.62;0.00;101498.50;4990025;28;20346;-74
2021/12/17 10:40:55;;;;;;;;;;;;;;;8.14;0.00;101482.25;4986377;28;19913;-75
2021/12/17 10:43:25;;;;;;;;;;;;;;;8.22;0.00;101482.41;5005224;28;20457;-75
2021/12/17 10:48:31;;;;;;;;;;;;;;;8.27;0.00;101484.22;4989072;28;20286;-75
2021/12/17 10:51:02;;;;;;;;;;;;;;;8.09;0.00;101479.59;5003407;28;19918;-75
2021/12/17 10:53:28;;;;;;;;;;;;;;;7.93;0.00;101473.34;4991503;28;19918;-75
2021/12/17 10:55:54;;;;;;;;;;;;;;;7.86;0.00;101476.63;4984410;28;19932;-75
2021/12/17 10:58:19;;;;;;;;;;;;;;;8.19;0.00;101480.66;5003916;28;19921;-75
2021/12/17 11:00:50;;;;;;;;;;;;;;;7.81;0.00;101470.53;4973405;28;19917;-75
2021/12/17 11:03:15;;;;;;;;;;;;;;;7.81;0.00;101473.13;5003988;28;19929;-75
2021/12/17 11:05:41;;;;;;;;;;;;;;;7.72;0.00;101475.50;4987119;28;20318;-75
2021/12/17 11:08:19;;;;;;;;;;;;;;;7.92;0.00;101479.31;5004941;28;19924;-75
2021/12/17 11:10:48;;;;;;;;;;;;;;;8.53;0.00;101486.38;4990417;28;19924;-75
2021/12/17 11:13:16;;;;;;;;;;;;;;;8.49;0.00;101474.34;4985149;28;19939;-75
2021/12/17 11:15:42;;;;;;;;;;;;;;;8.87;0.00;101472.38;4989672;28;19968;-75
2021/12/17 11:18:07;;;;;;;;;;;;;;;8.36;0.00;101456.13;4986642;28;20023;-74
2021/12/17 11:20:34;;;;;;;;;;;;;;;8.60;0.00;101452.28;4990915;28;20579;-75
2021/12/17 11:23:06;;;;;;;;;;;;;;;9.23;0.00;101447.16;4987866;28;19926;-75
2021/12/17 11:25:31;;;;;;;;;;;;;;;8.25;0.00;101434.53;4985201;28;20446;-75
2021/12/17 11:27:57;;;;;;;;;;;;;;;8.89;0.00;101439.84;4996447;28;19979;-75
2021/12/17 11:30:28;;;;;;;;;;;;;;;9.20;0.00;101432.53;4984105;28;19929;-75
2021/12/17 11:32:53;;;;;;;;;;;;;;;9.46;0.00;101422.56;5003972;28;19928;-75
2021/12/17 11:35:21;;;;;;;;;;;;;;;8.93;0.00;101415.06;4985240;28;19922;-75
2021/12/17 11:37:47;;;;;;;;;;;;;;;8.54;0.00;101417.06;4985633;28;20045;-75
2021/12/17 11:40:32;;;;;;;;;;;;;;;8.40;0.00;101420.25;4975610;28;19917;-75
2021/12/17 11:43:13;;;;;;;;;;;;;;;8.07;0.00;101426.53;4971059;28;19914;-75
2021/12/17 11:45:39;;;;;;;;;;;;;;;8.10;0.00;101429.16;5006506;28;20409;-73
2021/12/17 11:48:16;;;;;;;;;;;;;;;8.11;0.00;101430.88;4991447;28;20000;-73
2021/12/17 11:50:42;;;;;;;;;;;;;;;8.26;0.00;101440.56;4981815;28;19925;-74
2021/12/17 11:53:18;;;;;;;;;;;;;;;8.22;0.00;101449.03;5003323;28;19918;-74
2021/12/17 11:55:45;;;;;;;;;;;;;;;8.28;0.00;101449.13;5002709;28;19975;-74
2021/12/17 11:58:14;;;;;;;;;;;;;;;8.01;0.00;101454.69;4989856;28;19958;-74
2021/12/17 12:00:39;;;;;;;;;;;;;;;8.70;0.00;101454.13;4986509;28;20120;-73
2021/12/17 12:03:14;;;;;;;;;;;;;;;7.84;0.00;101457.78;5002396;28;20020;-73
2021/12/17 12:05:40;;;;;;;;;;;;;;;8.43;0.00;101458.84;4983824;28;19917;-74
2021/12/17 12:08:25;;;;;;;;;;;;;;;8.72;0.00;101457.59;4983684;28;20024;-74
2021/12/17 12:11:14;;;;;;;;;;;;;;;8.06;0.00;101458.19;5002410;28;19920;-74
2021/12/17 12:13:43;;;;;;;;;;;;;;;8.52;0.00;101459.84;4997042;28;19933;-74
2021/12/17 12:16:10;;;;;;;;;;;;;;;9.14;0.00;101453.88;4984782;28;19975;-74
2021/12/17 12:18:41;;;;;;;;;;;;;;;8.66;0.00;101436.06;4984926;28;19922;-74
2021/12/17 12:21:06;;;;;;;;;;;;;;;8.07;0.00;101434.22;5002820;28;20060;-73
2021/12/17 12:23:32;;;;;;;;;;;;;;;8.33;0.00;101430.41;4983987;28;20015;-74
2021/12/17 12:26:11;;;;;;;;;;;;;;;8.25;0.00;101433.69;5001528;28;19917;-73
2021/12/17 12:28:53;;;;;;;;;;;;;;;8.36;0.00;101433.00;5001081;28;19932;-75
2021/12/17 12:31:24;;;;;;;;;;;;;;;8.75;0.00;101444.78;5001315;28;20015;-75
2021/12/17 12:34:08;;;;;;;;;;;;;;;8.35;0.00;101440.72;4975185;28;19913;-75
2021/12/17 12:36:53;;;;;;;;;;;;;;;8.68;0.00;101448.09;5001898;28;19948;-75
2021/12/17 12:39:18;;;;;;;;;;;;;;;8.51;0.00;101441.84;5012157;28;19913;-77
2021/12/17 12:41:48;;;;;;;;;;;;;;;8.61;0.00;101436.00;4994773;28;20399;-78
2021/12/17 12:44:13;;;;;;;;;;;;;;;9.26;0.00;101426.59;5011919;28;19914;-77
2021/12/17 12:46:49;;;;;;;;;;;;;;;9.32;0.00;101421.53;5009180;28;19917;-77
2021/12/17 12:49:33;;;;;;;;;;;;;;;8.44;0.00;101410.06;4993476;28;19917;-78
2021/12/17 12:52:17;;;;;;;;;;;;;;;8.30;0.00;101407.25;5012797;28;19913;-77
2021/12/17 12:54:42;;;;;;;;;;;;;;;8.14;0.00;101410.41;5005171;28;19917;-75
2021/12/17 12:57:08;;;;;;;;;;;;;;;8.86;0.00;101416.66;4985590;28;19944;-76
2021/12/17 12:59:36;;;;;;;;;;;;;;;8.21;0.00;101407.13;5003399;28;20005;-76
2021/12/17 13:02:02;;;;;;;;;;;;;;;8.49;0.00;101402.44;4991583;28;19945;-76
2021/12/17 13:04:30;;;;;;;;;;;;;;;8.64;0.00;101397.50;5002650;28;19917;-77
2021/12/17 13:06:55;;;;;;;;;;;;;;;10.03;0.00;101400.88;4995793;28;20016;-76
2021/12/17 13:09:30;;;;;;;;;;;;;;;9.47;1.42;101388.28;5011771;28;19945;-77
2021/12/17 13:11:55;;;;;;;;;;;;;;;9.63;7.25;101379.88;5001600;28;20331;-77
2021/12/17 13:14:24;;;;;;;;;;;;;;;9.34;8.41;101378.72;4997604;28;19968;-77
2021/12/17 13:17:18;;;;;;;;;;;;;;;9.26;9.80;101367.47;5001030;28;19929;-77
2021/12/17 13:23:01;;;;;;;;;;;;;;;8.82;6.89;101365.22;4915345;29;19946;-78
2021/12/17 13:25:27;;;;;;;;;;;;;;;9.04;5.64;101367.22;4904147;29;20297;-74
2021/12/17 13:27:55;;;;;;;;;;;;;;;9.12;4.01;101381.03;4907101;29;19919;-74
2021/12/17 13:30:24;;;;;;;;;;;;;;;8.99;7.94;101366.31;4905918;29;19922;-74
2021/12/17 13:32:51;;;;;;;;;;;;;;;8.47;4.53;101369.03;4922220;29;19932;-77
2021/12/17 13:35:17;;;;;;;;;;;;;;;8.50;0.00;101378.47;4906618;29;19927;-76
2021/12/17 13:37:43;;;;;;;;;;;;;;;8.73;0.00;101387.38;4924699;29;19927;-77
2021/12/17 13:40:09;;;;;;;;;;;;;;;8.18;1.09;101391.66;4924870;29;20475;-78
2021/12/17 13:42:39;;;;;;;;;;;;;;;8.41;0.34;101388.63;4925287;29;19975;-78
2021/12/17 13:45:06;;;;;;;;;;;;;;;8.41;0.98;101389.47;4927407;29;20459;-76
2021/12/17 13:47:31;;;;;;;;;;;;;;;8.82;1.79;101380.63;4908541;29;19919;-77
2021/12/17 13:50:13;;;;;;;;;;;;;;;8.30;3.31;101380.69;4906656;29;19930;-76
2021/12/17 13:52:44;;;;;;;;;;;;;;;9.08;3.36;101374.13;4924364;29;19919;-77
2021/12/17 13:55:10;;;;;;;;;;;;;;;8.40;10.10;101368.91;4908604;29;19927;-77
2021/12/17 13:57:36;;;;;;;;;;;;;;;9.06;3.86;101370.69;4954640;28;19922;-77
2021/12/17 14:00:20;;;;;;;;;;;;;;;8.79;8.78;101376.31;4965741;28;20013;-76
2021/12/17 14:02:46;;;;;;;;;;;;;;;8.71;9.87;101368.53;4961659;28;19918;-76
2021/12/17 14:05:15;;;;;;;;;;;;;;;9.05;9.39;101368.06;4961563;28;20289;-76
2021/12/17 14:07:41;;;;;;;;;;;;;;;8.64;18.78;101363.25;4963846;28;20403;-77
2021/12/17 14:10:06;;;;;;;;;;;;;;;9.23;15.24;101358.00;4946044;28;19976;-77
2021/12/17 14:12:33;;;;;;;;;;;;;;;9.28;19.60;101360.63;4964144;28;19918;-78
2021/12/17 14:15:07;;;;;;;;;;;;;;;9.25;27.48;101358.91;4953671;28;19934;-78
2021/12/17 14:17:35;;;;;;;;;;;;;;;9.26;29.40;101354.59;4967755;28;19926;-77
2021/12/17 14:20:04;;;;;;;;;;;;;;;9.77;31.83;101356.00;4968368;28;20580;-78
2021/12/17 14:22:33;;;;;;;;;;;;;;;9.09;44.23;101344.16;4966956;28;19922;-77
2021/12/17 14:24:58;;;;;;;;;;;;;;;8.75;47.92;101331.72;4969923;28;19930;-78
2021/12/17 14:27:43;;;;;;;;;;;;;;;9.01;45.76;101328.66;4970274;28;19918;-76
2021/12/17 14:30:08;;;;;;;;;;;;;;;9.78;48.56;101319.13;5007574;28;19925;-76
2021/12/17 14:32:38;;;;;;;;;;;;;;;10.30;59.85;101316.97;4989715;28;19921;-76
2021/12/17 14:35:04;;;;;;;;;;;;;;;10.52;67.85;101314.53;4989810;28;20426;-77
2021/12/17 14:37:30;;;;;;;;;;;;;;;10.49;77.75;101306.75;5009309;28;20056;-77
2021/12/17 14:39:58;;;;;;;;;;;;;;;10.36;82.50;101304.13;4990795;28;19920;-76
2021/12/17 14:42:33;;;;;;;;;;;;;;;10.34;86.70;101303.25;4996409;28;19928;-77
2021/12/17 14:45:05;;;;;;;;;;;;;;;10.05;89.42;101301.31;4973770;28;19917;-76
2021/12/17 14:47:40;;;;;;;;;;;;;;;10.19;90.41;101297.97;4996136;28;20306;-77
2021/12/17 15:01:50;;;;;;;;;;;;;;;9.40;94.87;101330.78;4910565;29;19923;-78
2021/12/17 15:04:16;;;;;;;;;;;;;;;9.26;89.04;101331.47;4911749;29;19923;-78
2021/12/17 15:06:41;;;;;;;;;;;;;;;9.85;89.11;101333.75;4899822;29;19923;-77
2021/12/17 15:09:06;;;;;;;;;;;;;;;9.83;86.00;101331.19;4902421;29;19959;-78
2021/12/17 15:11:37;;;;;;;;;;;;;;;9.98;89.26;101329.59;4910662;29;19970;-77
2021/12/17 15:14:02;;;;;;;;;;;;;;;10.19;93.87;101323.72;4905816;29;19982;-77
2021/12/17 15:16:28;;;;;;;;;;;;;;;9.56;98.25;101330.94;4904864;29;20053;-78
2021/12/17 15:18:53;;;;;;;;;;;;;;;9.37;94.88;101330.75;4909979;29;19963;-77
2021/12/17 15:21:19;;;;;;;;;;;;;;;8.58;89.70;101335.81;4910393;29;20400;-77
2021/12/17 15:23:44;;;;;;;;;;;;;;;8.48;80.21;101339.91;4908855;29;19927;-77
2021/12/17 15:26:09;;;;;;;;;;;;;;;9.27;72.88;101343.50;4901937;29;19927;-77
2021/12/17 15:28:35;;;;;;;;;;;;;;;8.79;75.13;101341.22;4904846;29;19927;-77
2021/12/17 15:31:04;;;;;;;;;;;;;;;8.65;73.24;101347.03;4908609;29;19919;-77
2021/12/17 15:33:30;;;;;;;;;;;;;;;8.12;67.10;101348.78;4924178;29;19934;-78
2021/12/17 15:35:55;;;;;;;;;;;;;;;7.96;61.02;101354.53;4928973;28;19922;-78
2021/12/17 15:38:23;;;;;;;;;;;;;;;8.00;56.45;101365.69;4964170;28;19941;-74
2021/12/17 15:40:48;;;;;;;;;;;;;;;8.98;49.68;101382.56;4961753;28;19922;-74
2021/12/17 15:43:15;;;;;;;;;;;;;;;9.11;51.98;101379.31;4960058;28;20100;-74
2021/12/17 15:45:43;;;;;;;;;;;;;;;8.92;59.17;101359.38;4960315;28;19961;-74
2021/12/17 15:48:09;;;;;;;;;;;;;;;9.74;64.83;101361.09;4961371;28;19927;-74
2021/12/17 15:50:34;;;;;;;;;;;;;;;9.38;74.47;101354.75;4960020;28;19929;-74